Time;durP1;ratioP1;P1;durP2;ratioP2;P2;SDS_P1;SDS_P2;PMS_P1;PMS_P2;Temp;Humidity;BMP_temperature;BMP_pressure;BME280_temperature;BME280_humidity;BME280_pressure;Samples;Min_cycle;Max_cycle;Signal;HPM_P1;HPM_P2
2022/05/01 00:00:40;;;;;;;;;;;;;;;12.83;83.46;100140.47;6210388;23;19962;-89
2022/05/01 00:03:06;;;;;;;;;;;;;;;12.80;84.48;100133.03;6184747;23;20328;-89
2022/05/01 00:05:32;;;;;;;;;;;;;;;12.86;84.33;100134.78;6160510;23;19915;-90
2022/05/01 00:07:58;;;;;;;;;;;;;;;12.97;85.18;100135.22;6185762;23;19912;-89
2022/05/01 00:10:24;;;;;;;;;;;;;;;13.03;84.30;100133.41;6211230;23;19970;-90
2022/05/01 00:12:49;;;;;;;;;;;;;;;12.96;84.21;100141.22;6210158;23;19916;-88
2022/05/01 00:15:15;;;;;;;;;;;;;;;12.93;85.68;100142.91;6210188;23;19923;-90
2022/05/01 00:17:40;;;;;;;;;;;;;;;12.91;84.10;100139.00;6160648;23;19979;-88
2022/05/01 00:20:06;;;;;;;;;;;;;;;12.95;83.16;100128.53;6211365;23;19908;-91
2022/05/01 00:22:31;;;;;;;;;;;;;;;13.00;81.81;100123.16;6210994;23;19912;-89
2022/05/01 00:24:57;;;;;;;;;;;;;;;13.05;79.77;100130.16;6186306;23;19926;-90
2022/05/01 00:27:22;;;;;;;;;;;;;;;13.06;79.44;100129.69;6211164;23;19908;-89
2022/05/01 00:29:48;;;;;;;;;;;;;;;13.11;80.23;100133.94;6186113;23;19990;-89
2022/05/01 00:32:13;;;;;;;;;;;;;;;13.17;79.37;100132.16;6161213;23;19911;-89
2022/05/01 00:37:22;;;;;;;;;;;;;;;13.21;82.06;100132.03;6190410;23;20009;-89
2022/05/01 00:39:48;;;;;;;;;;;;;;;13.23;82.64;100135.91;6185820;23;20312;-90
2022/05/01 00:42:15;;;;;;;;;;;;;;;13.21;82.79;100137.59;6185579;23;20221;-90
2022/05/01 00:44:41;;;;;;;;;;;;;;;13.21;82.69;100134.81;6186408;23;19915;-90
2022/05/01 00:47:06;;;;;;;;;;;;;;;13.16;82.68;100127.03;6185146;23;20382;-90
2022/05/01 00:49:31;;;;;;;;;;;;;;;13.11;84.81;100133.16;6184116;23;19982;-89
2022/05/01 00:51:59;;;;;;;;;;;;;;;13.08;84.43;100124.47;6185246;23;20298;-90
2022/05/01 00:54:25;;;;;;;;;;;;;;;13.10;85.19;100126.84;6160523;23;19915;-89
2022/05/01 00:56:52;;;;;;;;;;;;;;;13.03;87.77;100138.19;6185049;23;20002;-89
2022/05/01 00:59:20;;;;;;;;;;;;;;;12.96;89.33;100136.44;6162172;23;19919;-90
2022/05/01 01:01:50;;;;;;;;;;;;;;;12.89;88.67;100138.69;6126080;23;19971;-88
2022/05/01 01:04:15;;;;;;;;;;;;;;;12.92;87.44;100138.56;6147935;23;20314;-88
2022/05/01 01:06:41;;;;;;;;;;;;;;;12.95;88.01;100137.66;6183160;23;19919;-89
2022/05/01 01:09:07;;;;;;;;;;;;;;;12.96;88.38;100133.66;6156456;23;20444;-89
2022/05/01 01:11:32;;;;;;;;;;;;;;;13.01;90.33;100124.72;6180549;23;19944;-88
2022/05/01 01:13:58;;;;;;;;;;;;;;;13.03;91.25;100133.41;6179716;23;19916;-88
2022/05/01 01:16:23;;;;;;;;;;;;;;;12.98;91.32;100128.41;6180229;23;19915;-88
2022/05/01 01:18:49;;;;;;;;;;;;;;;12.98;92.77;100133.97;6180757;23;20299;-84
2022/05/01 01:21:14;;;;;;;;;;;;;;;12.94;95.03;100136.09;6179530;23;19959;-84
2022/05/01 01:23:40;;;;;;;;;;;;;;;12.97;96.01;100134.44;6182383;23;20008;-85
2022/05/01 01:26:06;;;;;;;;;;;;;;;12.98;95.08;100133.97;6181214;23;19931;-84
2022/05/01 01:28:35;;;;;;;;;;;;;;;12.92;100.00;100133.00;6184219;23;20319;-85
2022/05/01 01:33:47;;;;;;;;;;;;;;;12.85;100.00;100119.31;6184048;23;19936;-84
2022/05/01 01:36:12;;;;;;;;;;;;;;;12.83;100.00;100130.13;6184747;23;19963;-84
2022/05/01 01:38:38;;;;;;;;;;;;;;;12.80;100.00;100125.47;6182842;23;20381;-84
2022/05/01 01:41:06;;;;;;;;;;;;;;;12.77;100.00;100120.81;6184625;23;19915;-84
2022/05/01 01:43:32;;;;;;;;;;;;;;;12.74;100.00;100115.38;6183329;23;19991;-84
2022/05/01 01:45:57;;;;;;;;;;;;;;;12.70;100.00;100121.03;6183281;23;19951;-84
2022/05/01 01:48:23;;;;;;;;;;;;;;;12.56;100.00;100130.66;6184418;23;19919;-84
2022/05/01 01:50:58;;;;;;;;;;;;;;;12.53;100.00;100125.19;6184686;23;19908;-83
2022/05/01 01:53:24;;;;;;;;;;;;;;;12.59;100.00;100121.41;6184410;23;20258;-85
2022/05/01 01:55:49;;;;;;;;;;;;;;;12.63;100.00;100116.50;6183992;23;19912;-85
2022/05/01 01:58:15;;;;;;;;;;;;;;;12.69;100.00;100113.91;6180329;23;19955;-85
2022/05/01 02:00:40;;;;;;;;;;;;;;;12.63;100.00;100119.28;6183474;23;19911;-84
2022/05/01 02:03:05;;;;;;;;;;;;;;;12.63;100.00;100118.50;6198693;23;19923;-85
2022/05/01 22:03:44;;;;;;;;;;;;;;;13.16;85.58;99984.97;6183697;23;19927;-86
2022/05/01 22:06:10;;;;;;;;;;;;;;;13.20;84.55;99983.63;6184093;23;20278;-86
2022/05/01 22:08:36;;;;;;;;;;;;;;;13.18;86.01;99979.75;6182834;23;19912;-86
2022/05/01 22:11:01;;;;;;;;;;;;;;;13.14;88.19;99976.31;6184167;23;19958;-86
2022/05/01 22:13:27;;;;;;;;;;;;;;;13.09;88.05;99975.66;6184511;23;19916;-86
2022/05/01 22:15:52;;;;;;;;;;;;;;;13.04;87.98;99981.81;6182830;23;19913;-86
2022/05/01 22:18:17;;;;;;;;;;;;;;;12.94;89.49;99988.53;6184370;23;20309;-87
2022/05/01 22:20:43;;;;;;;;;;;;;;;12.93;89.20;99980.66;6184605;23;19916;-86
2022/05/01 22:23:08;;;;;;;;;;;;;;;12.87;89.91;99986.03;6183726;23;19934;-86
2022/05/01 22:25:34;;;;;;;;;;;;;;;12.78;90.79;99974.81;6184620;23;19912;-86
2022/05/01 22:27:59;;;;;;;;;;;;;;;12.77;89.96;99976.06;6182272;23;19913;-86
2022/05/01 22:30:25;;;;;;;;;;;;;;;12.74;90.98;99982.53;6184354;23;19908;-86
2022/05/01 22:32:50;;;;;;;;;;;;;;;12.83;90.22;99977.03;6182389;23;19999;-86
2022/05/01 22:38:00;;;;;;;;;;;;;;;12.93;92.12;99966.72;6183631;23;19912;-88
2022/05/01 22:40:27;;;;;;;;;;;;;;;12.88;93.32;99975.66;6184284;23;19912;-88
2022/05/01 22:42:53;;;;;;;;;;;;;;;12.92;91.42;99965.94;6182242;23;20315;-88
2022/05/01 22:45:18;;;;;;;;;;;;;;;13.00;87.97;99967.25;6184150;23;19987;-88
2022/05/01 22:47:44;;;;;;;;;;;;;;;13.03;89.18;99966.31;6182370;23;19912;-88
2022/05/01 22:50:09;;;;;;;;;;;;;;;13.08;88.92;99965.75;6183548;23;19908;-88
2022/05/01 22:52:35;;;;;;;;;;;;;;;13.16;86.82;99959.91;6182053;23;19920;-88
2022/05/01 22:55:01;;;;;;;;;;;;;;;13.17;86.14;99975.41;6182841;23;19916;-88
2022/05/01 22:57:26;;;;;;;;;;;;;;;13.09;88.65;99972.09;6183826;23;19918;-88
2022/05/01 22:59:52;;;;;;;;;;;;;;;13.06;91.46;99975.78;6183732;23;19935;-88
2022/05/01 23:02:17;;;;;;;;;;;;;;;13.00;92.84;99972.03;6190162;23;19912;-88
2022/05/01 23:04:43;;;;;;;;;;;;;;;12.98;94.93;99980.81;6214227;23;19969;-88
2022/05/01 23:07:09;;;;;;;;;;;;;;;12.85;93.03;99971.78;6213344;23;20308;-88
2022/05/01 23:09:35;;;;;;;;;;;;;;;12.87;96.12;99972.09;6213511;23;19960;-87
2022/05/01 23:12:01;;;;;;;;;;;;;;;12.88;93.97;99973.66;6212932;23;20246;-87
2022/05/01 23:14:26;;;;;;;;;;;;;;;12.95;92.55;99964.25;6213414;23;19912;-85
2022/05/01 23:16:52;;;;;;;;;;;;;;;12.98;90.75;99964.13;6213189;23;20352;-85
2022/05/01 23:19:17;;;;;;;;;;;;;;;12.95;92.45;99956.69;6213169;23;19915;-88
2022/05/01 23:21:42;;;;;;;;;;;;;;;12.98;91.24;99958.56;6212617;23;20034;-88
2022/05/01 23:24:08;;;;;;;;;;;;;;;12.99;89.78;99951.75;6213043;23;19912;-88
2022/05/01 23:26:33;;;;;;;;;;;;;;;12.96;91.99;99941.53;6213800;23;19912;-88
2022/05/01 23:28:59;;;;;;;;;;;;;;;12.92;91.15;99940.13;6213245;23;19938;-88
2022/05/01 23:31:24;;;;;;;;;;;;;;;12.88;92.20;99931.13;6213496;23;19967;-87
2022/05/01 23:33:49;;;;;;;;;;;;;;;12.83;93.35;99926.13;6213709;23;19912;-88
2022/05/01 23:36:15;;;;;;;;;;;;;;;12.77;94.46;99931.53;6213471;23;19912;-88
2022/05/01 23:38:41;;;;;;;;;;;;;;;12.75;94.41;99936.75;6213589;23;20316;-87
2022/05/01 23:41:06;;;;;;;;;;;;;;;12.74;93.81;99940.78;6213128;23;19916;-88
2022/05/01 23:43:31;;;;;;;;;;;;;;;12.70;95.38;99933.81;6213298;23;19962;-87
2022/05/01 23:45:57;;;;;;;;;;;;;;;12.70;95.31;99929.00;6213741;23;19912;-89
2022/05/01 23:48:22;;;;;;;;;;;;;;;12.68;94.24;99928.69;6213115;23;19919;-88
2022/05/01 23:50:48;;;;;;;;;;;;;;;12.64;95.05;99922.47;6213665;23;19908;-88
2022/05/01 23:53:13;;;;;;;;;;;;;;;12.62;93.93;99924.91;6212948;23;19934;-88
2022/05/01 23:55:38;;;;;;;;;;;;;;;12.63;93.94;99915.34;6213916;23;19912;-87
2022/05/01 23:58:04;;;;;;;;;;;;;;;12.61;93.80;99920.59;6213026;23;20326;-88
